createdAt,value
2023-04-26T00:01:01.173Z,7.23
2023-04-26T00:06:03.116Z,7.19
2023-04-26T00:11:04.530Z,7.23
2023-04-26T00:16:05.756Z,7.25
2023-04-26T00:21:07.683Z,7.21
2023-04-26T00:26:09.534Z,7.15
2023-04-26T00:31:10.828Z,7.21
2023-04-26T00:36:12.684Z,7.23
2023-04-26T00:41:14.525Z,7.2
2023-04-26T00:46:16.484Z,7.21
2023-04-26T00:51:17.684Z,7.25
2023-04-26T00:56:19.329Z,7.25
2023-04-26T01:01:21.360Z,7.19
2023-04-26T01:06:23.068Z,7.17
2023-04-26T01:11:24.404Z,7.17
2023-04-26T01:16:26.178Z,7.18
2023-04-26T01:21:27.803Z,7.1
2023-04-26T01:26:29.333Z,7.13
2023-04-26T01:31:31.456Z,7.13
2023-04-26T01:36:33.543Z,7.13
2023-04-26T01:41:35.261Z,7.09
2023-04-26T01:46:36.555Z,7.11
2023-04-26T01:51:38.211Z,7.12
2023-04-26T01:56:39.983Z,7.03
2023-04-26T02:01:41.480Z,7.04
2023-04-26T02:06:43.092Z,7.05
2023-04-26T02:11:44.483Z,7.04
2023-04-26T02:16:46.218Z,6.97
2023-04-26T02:21:47.851Z,7.01
2023-04-26T02:26:49.043Z,7.03
2023-04-26T02:31:50.326Z,7.02
2023-04-26T02:36:52.079Z,6.98
2023-04-26T02:41:53.779Z,7.02
2023-04-26T02:46:55.568Z,7.04
2023-04-26T02:51:56.834Z,6.99
2023-04-26T02:56:58.313Z,6.97
2023-04-26T03:01:59.982Z,6.97
2023-04-26T03:07:01.281Z,6.98
2023-04-26T03:12:02.982Z,6.95
2023-04-26T03:17:04.448Z,6.96
2023-04-26T03:22:06.505Z,6.98
2023-04-26T03:27:07.836Z,6.96
2023-04-26T03:32:09.678Z,6.9
2023-04-26T03:37:11.155Z,6.95
2023-04-26T03:42:12.865Z,6.97
2023-04-26T03:47:14.207Z,6.91
2023-04-26T03:52:15.359Z,6.85
2023-04-26T03:57:16.597Z,6.87
2023-04-26T04:02:18.023Z,6.86
2023-04-26T04:07:19.286Z,6.78
2023-04-26T04:12:21.089Z,6.74
2023-04-26T04:17:22.904Z,6.74
2023-04-26T04:22:24.776Z,6.71
2023-04-26T04:27:26.726Z,6.64
2023-04-26T04:32:28.274Z,6.62
2023-04-26T04:37:29.667Z,6.61
2023-04-26T04:42:31.189Z,6.6
2023-04-26T04:47:33.361Z,6.56
2023-04-26T04:52:35.091Z,6.63
2023-04-26T04:57:37.154Z,6.7
2023-04-26T05:02:38.413Z,6.7
2023-04-26T05:07:39.835Z,6.74
2023-04-26T05:12:41.467Z,6.86
2023-04-26T05:17:43.362Z,6.93
2023-04-26T05:22:44.537Z,6.91
2023-04-26T05:27:46.258Z,6.93
2023-04-26T05:32:48.303Z,7
2023-04-26T05:37:51.173Z,7.09
2023-04-26T05:42:51.299Z,7.18
2023-04-26T05:47:52.922Z,7.32
2023-04-26T05:52:54.374Z,7.48
2023-04-26T05:57:56.197Z,7.58
2023-04-26T06:02:58.080Z,7.67
2023-04-26T06:07:59.476Z,7.79
2023-04-26T06:13:00.811Z,7.89
2023-04-26T06:18:02.722Z,7.99
2023-04-26T06:23:04.768Z,8.07
2023-04-26T06:28:06.482Z,8.22
2023-04-26T06:33:08.460Z,8.37
2023-04-26T06:38:09.884Z,8.51
2023-04-26T06:43:11.579Z,8.68
2023-04-26T06:48:13.526Z,8.81
2023-04-26T06:53:15.413Z,8.95
2023-04-26T06:58:17.002Z,9.01
2023-04-26T07:03:19.692Z,9.14
2023-04-26T07:08:19.814Z,9.43
2023-04-26T07:13:21.716Z,9.58
2023-04-26T07:18:23.619Z,9.72
2023-04-26T07:23:25.368Z,9.89
2023-04-26T07:28:27.052Z,10.06
2023-04-26T07:33:28.829Z,10.27
2023-04-26T07:38:30.362Z,10.51
2023-04-26T07:43:31.851Z,11.07
2023-04-26T07:48:33.917Z,11.35
2023-04-26T07:53:35.304Z,11.68
2023-04-26T07:58:36.697Z,12.03
2023-04-26T08:03:38.234Z,12.57
2023-04-26T08:08:40.202Z,12.83
2023-04-26T08:13:42.379Z,12.81
2023-04-26T08:18:46.178Z,13.18
2023-04-26T08:28:47.179Z,13.86
2023-04-26T08:48:53.868Z,14.48
2023-04-26T08:53:55.697Z,14.38
2023-04-26T09:49:11.555Z,13.85
2023-04-26T09:54:13.140Z,13.91
2023-04-26T10:14:19.378Z,13.99
2023-04-26T10:39:27.602Z,12.4
2023-04-26T11:24:49.238Z,12.83
2023-04-26T11:29:51.258Z,13.12
2023-04-26T11:34:53.321Z,13.34
2023-04-26T11:39:54.640Z,13.46
2023-04-26T11:44:56.606Z,13.71
2023-04-26T11:49:58.131Z,13.93
2023-04-26T11:55:00.152Z,14.22
2023-04-26T12:00:01.448Z,14.36
2023-04-26T12:05:02.760Z,14.33
2023-04-26T12:10:04.202Z,14.37
2023-04-26T12:15:05.927Z,14.19
2023-04-26T12:20:08.010Z,14.12
2023-04-26T12:25:09.662Z,14.25
2023-04-26T12:30:11.399Z,14.47
2023-04-26T12:35:13.119Z,14.44
2023-04-26T12:40:14.529Z,14.4
2023-04-26T12:45:16.269Z,14.32
2023-04-26T12:50:18.804Z,14.39
2023-04-26T12:55:19.836Z,14.47
2023-04-26T13:00:21.964Z,14.56
2023-04-26T13:05:23.644Z,14.5
2023-04-26T13:10:25.289Z,14.35
2023-04-26T13:15:26.686Z,14.43
2023-04-26T13:20:30.403Z,14.57
2023-04-26T13:25:30.754Z,14.67
2023-04-26T13:30:32.012Z,14.53
2023-04-26T13:35:33.300Z,14.52
2023-04-26T13:40:35.434Z,14.6
2023-04-26T13:45:37.262Z,14.63
2023-04-26T13:50:38.839Z,14.54
2023-04-26T13:55:40.725Z,14.54
2023-04-26T14:00:42.788Z,14.57
2023-04-26T14:05:44.418Z,14.65
2023-04-26T14:10:46.252Z,14.69
2023-04-26T14:15:47.877Z,14.81
2023-04-26T14:20:49.401Z,14.81
2023-04-26T14:25:51.200Z,14.73
2023-04-26T14:30:52.900Z,14.7
2023-04-26T14:35:54.261Z,14.77
2023-04-26T14:40:55.893Z,14.74
2023-04-26T14:45:58.865Z,14.46
2023-04-26T14:50:58.972Z,14.37
2023-04-26T14:56:00.405Z,14.32
2023-04-26T15:01:02.065Z,14.27
2023-04-26T15:06:03.726Z,14.22
2023-04-26T15:11:05.562Z,14.14
2023-04-26T15:16:08.111Z,14.11
2023-04-26T15:21:08.829Z,14.02
2023-04-26T15:26:10.544Z,13.93
2023-04-26T15:31:12.398Z,13.94
2023-04-26T15:36:13.722Z,13.8
2023-04-26T15:41:15.238Z,13.53
2023-04-26T15:46:17.156Z,13.3
2023-04-26T15:51:19.193Z,13.24
2023-04-26T15:56:21.027Z,13.21
2023-04-26T16:01:23.074Z,13.19
2023-04-26T16:06:25.185Z,13.14
2023-04-26T16:11:27.032Z,13.08
2023-04-26T16:16:28.619Z,13.02
2023-04-26T16:21:30.108Z,12.98
2023-04-26T16:26:31.438Z,12.95
2023-04-26T16:31:33.441Z,12.93
2023-04-26T16:36:34.794Z,12.87
2023-04-26T16:41:35.994Z,12.87
2023-04-26T16:46:38.124Z,12.88
2023-04-26T16:51:40.052Z,12.71
2023-04-26T16:56:41.322Z,12.6
2023-04-26T17:01:42.840Z,12.58
2023-04-26T17:06:44.357Z,12.52
2023-04-26T17:11:45.850Z,12.44
2023-04-26T17:16:47.025Z,12.44
2023-04-26T17:21:48.381Z,12.45
2023-04-26T17:26:50.246Z,12.42
2023-04-26T17:31:51.771Z,12.33
2023-04-26T17:36:53.140Z,12.28
2023-04-26T17:41:54.866Z,12.2
2023-04-26T17:46:56.525Z,11.96
2023-04-26T17:51:58.626Z,11.86
2023-04-26T17:57:00.402Z,11.74
2023-04-26T18:02:02.232Z,11.67
2023-04-26T18:07:04.066Z,11.56
2023-04-26T18:12:06.131Z,11.53
2023-04-26T18:17:07.776Z,11.45
2023-04-26T18:22:09.422Z,11.36
2023-04-26T18:27:10.889Z,11.28
2023-04-26T18:32:12.161Z,11.16
2023-04-26T18:37:14.066Z,11.06
2023-04-26T18:42:15.945Z,10.85
2023-04-26T18:47:17.736Z,10.82
2023-04-26T18:52:19.607Z,10.73
2023-04-26T18:57:21.033Z,10.55
2023-04-26T19:02:22.430Z,10.45
2023-04-26T19:07:24.551Z,10.36
2023-04-26T19:12:26.405Z,10.22
2023-04-26T19:17:28.113Z,10.06
2023-04-26T19:22:30.137Z,10.05
2023-04-26T19:27:31.363Z,9.97
2023-04-26T19:32:32.714Z,9.88
2023-04-26T19:37:34.555Z,9.8
2023-04-26T19:42:36.142Z,9.76
2023-04-26T19:47:37.727Z,9.67
2023-04-26T19:52:39.739Z,9.57
2023-04-26T19:57:41.830Z,9.56
2023-04-26T20:02:43.781Z,9.51
2023-04-26T20:07:45.394Z,9.39
2023-04-26T20:12:47.560Z,9.32
2023-04-26T20:17:49.612Z,9.28
2023-04-26T20:22:51.337Z,9.18
2023-04-26T20:27:52.871Z,9.05
2023-04-26T20:32:54.568Z,9.02
2023-04-26T20:37:55.822Z,8.97
2023-04-26T20:42:57.365Z,8.85
2023-04-26T20:47:58.818Z,8.76
2023-04-26T20:53:00.641Z,8.72
2023-04-26T20:58:02.124Z,8.67
2023-04-26T21:03:04.366Z,8.53
2023-04-26T21:08:05.430Z,8.5
2023-04-26T21:13:07.200Z,8.47
2023-04-26T21:18:08.420Z,8.42
2023-04-26T21:23:09.837Z,8.3
2023-04-26T21:28:11.796Z,8.34
2023-04-26T21:33:13.300Z,8.33
2023-04-26T21:38:14.763Z,8.29
2023-04-26T21:43:16.393Z,8.28
2023-04-26T21:48:18.530Z,8.3
2023-04-26T21:53:20.008Z,8.3
2023-04-26T21:58:21.247Z,8.24
2023-04-26T22:03:22.723Z,8.27
2023-04-26T22:08:23.895Z,8.26
2023-04-26T22:13:25.945Z,8.22
2023-04-26T22:18:27.881Z,8.18
2023-04-26T22:23:29.729Z,8.2
2023-04-26T22:28:30.932Z,8.2
2023-04-26T22:33:32.349Z,8.13
2023-04-26T22:38:34.297Z,8.2
2023-04-26T22:43:36.262Z,8.22
2023-04-26T22:48:37.531Z,8.18
2023-04-26T22:53:39.255Z,8.07
2023-04-26T22:58:41.305Z,8.08
2023-04-26T23:38:55.208Z,7.85
